createdAt,value
2023-04-18T00:01:10.122Z,101261.72
2023-04-18T00:03:38.496Z,101257.78
2023-04-18T00:06:06.381Z,101254.81
2023-04-18T00:08:36.259Z,101258.97
2023-04-18T00:11:03.428Z,101252.47
2023-04-18T00:13:30.379Z,101245.25
2023-04-18T00:15:57.519Z,101238.88
2023-04-18T00:18:26.786Z,101233.75
2023-04-18T00:20:54.750Z,101236.59
2023-04-18T00:23:22.536Z,101236.44
2023-04-18T00:25:49.496Z,101240.59
2023-04-18T00:28:16.590Z,101249.38
2023-04-18T00:30:43.668Z,101230.66
2023-04-18T00:33:10.952Z,101238.16
2023-04-18T00:35:38.723Z,101235.34
2023-04-18T00:38:08.751Z,101233.25
2023-04-18T00:40:36.487Z,101231.28
2023-04-18T00:43:03.637Z,101227.59
2023-04-18T00:45:30.819Z,101223.91
2023-04-18T00:48:00.321Z,101220.25
2023-04-18T00:50:27.656Z,101224.78
2023-04-18T00:52:54.965Z,101217.69
2023-04-18T00:55:22.645Z,101211.19
2023-04-18T00:57:49.901Z,101216.81
2023-04-18T01:00:17.147Z,101206.94
2023-04-18T01:02:44.597Z,101207.09
2023-04-18T01:05:12.098Z,101204.50
2023-04-18T01:07:42.168Z,101191.06
2023-04-18T01:10:11.218Z,101196.56
2023-04-18T01:12:38.231Z,101199.25
2023-04-18T01:15:06.331Z,101191.06
2023-04-18T01:17:35.614Z,101197.31
2023-04-18T01:20:06.078Z,101193.63
2023-04-18T01:22:33.942Z,101189.38
2023-04-18T01:25:01.054Z,101184.84
2023-04-18T01:27:28.298Z,101182.44
2023-04-18T01:29:55.213Z,101184.25
2023-04-18T01:32:22.481Z,101183.41
2023-04-18T01:34:49.517Z,101183.41
2023-04-18T01:37:16.532Z,101173.75
2023-04-18T01:39:43.495Z,101171.22
2023-04-18T01:42:11.744Z,101171.47
2023-04-18T01:44:38.810Z,101175.41
2023-04-18T01:47:06.021Z,101163.50
2023-04-18T01:49:33.107Z,101172.16
2023-04-18T01:52:00.145Z,101178.50
2023-04-18T01:54:27.097Z,101170.44
2023-04-18T01:56:55.590Z,101173.97
2023-04-18T01:59:22.520Z,101174.25
2023-04-18T02:01:49.492Z,101177.94
2023-04-18T02:04:17.762Z,101178.19
2023-04-18T02:06:46.639Z,101183.69
2023-04-18T02:09:13.558Z,101180.16
2023-04-18T02:11:42.942Z,101180.44
2023-04-18T02:14:12.900Z,101184.09
2023-04-18T02:16:40.041Z,101179.81
2023-04-18T02:19:07.094Z,101179.25
2023-04-18T02:21:34.384Z,101176.69
2023-04-18T02:24:01.390Z,101176.81
2023-04-18T02:26:28.317Z,101170.69
2023-04-18T02:28:58.885Z,101165.59
2023-04-18T02:31:26.145Z,101165.84
2023-04-18T02:33:53.226Z,101167.81
2023-04-18T02:36:21.907Z,101170.63
2023-04-18T02:38:48.886Z,101158.03
2023-04-18T02:41:19.528Z,101158.63
2023-04-18T02:43:47.202Z,101162.56
2023-04-18T02:46:15.815Z,101156.22
2023-04-18T02:48:45.582Z,101153.66
2023-04-18T02:51:13.750Z,101156.50
2023-04-18T02:53:41.577Z,101149.53
2023-04-18T02:56:08.909Z,101148.81
2023-04-18T02:58:56.155Z,101150.78
2023-04-18T03:01:56.578Z,101149.34
2023-04-18T03:04:24.022Z,101144.94
2023-04-18T03:07:00.485Z,101150.59
2023-04-18T03:09:30.133Z,101142.75
2023-04-18T03:12:02.531Z,101144.00
2023-04-18T03:14:31.644Z,101144.00
2023-04-18T03:16:59.797Z,101137.94
2023-04-18T03:19:32.217Z,101136.22
2023-04-18T03:22:06.182Z,101140.16
2023-04-18T03:24:35.941Z,101125.50
2023-04-18T03:27:05.598Z,101136.47
2023-04-18T03:29:33.507Z,101130.00
2023-04-18T03:32:01.373Z,101132.81
2023-04-18T03:34:28.592Z,101130.41
2023-04-18T03:36:56.179Z,101127.72
2023-04-18T03:39:23.784Z,101128.69
2023-04-18T03:41:52.691Z,101133.06
2023-04-18T03:44:20.180Z,101133.06
2023-04-18T03:46:47.244Z,101127.72
2023-04-18T03:49:14.204Z,101125.72
2023-04-18T03:51:49.999Z,101125.72
2023-04-18T03:54:18.796Z,101119.19
2023-04-18T03:56:46.025Z,101121.47
2023-04-18T03:59:14.252Z,101108.19
2023-04-18T04:01:45.069Z,101114.69
2023-04-18T04:04:14.202Z,101113.56
2023-04-18T04:06:41.969Z,101113.31
2023-04-18T04:09:08.937Z,101109.63
2023-04-18T04:11:36.610Z,101112.06
2023-04-18T04:14:04.392Z,101111.09
2023-04-18T04:16:38.880Z,101112.19
2023-04-18T04:19:07.035Z,101105.97
2023-04-18T04:21:40.319Z,101105.97
2023-04-18T04:24:10.704Z,101105.97
2023-04-18T04:26:43.452Z,101107.09
2023-04-18T04:29:19.078Z,101116.97
2023-04-18T04:31:47.929Z,101117.81
2023-04-18T04:34:22.384Z,101115.53
2023-04-18T04:36:49.430Z,101122.16
2023-04-18T04:39:17.610Z,101117.47
2023-04-18T04:42:07.760Z,101121.13
2023-04-18T04:44:47.418Z,101115.53
2023-04-18T04:47:15.657Z,101122.59
2023-04-18T04:49:42.572Z,101129.94
2023-04-18T04:52:10.009Z,101122.72
2023-04-18T04:54:37.007Z,101129.34
2023-04-18T04:57:06.080Z,101125.66
2023-04-18T04:59:33.050Z,101131.19
2023-04-18T05:02:01.109Z,101128.59
2023-04-18T05:04:28.256Z,101128.72
2023-04-18T05:06:55.646Z,101133.41
2023-04-18T05:09:22.648Z,101128.72
2023-04-18T05:11:49.622Z,101126.78
2023-04-18T05:14:17.897Z,101123.97
2023-04-18T05:16:44.902Z,101132.88
2023-04-18T05:19:11.811Z,101123.81
2023-04-18T05:21:39.247Z,101122.84
2023-04-18T05:24:06.165Z,101125.53
2023-04-18T05:26:33.191Z,101134.44
2023-04-18T05:29:00.199Z,101134.72
2023-04-18T05:31:27.798Z,101131.63
2023-04-18T05:33:54.821Z,101138.69
2023-04-18T05:36:22.594Z,101138.69
2023-04-18T05:38:49.623Z,101134.19
2023-04-18T05:41:16.594Z,101142.09
2023-04-18T05:43:48.240Z,101137.97
2023-04-18T05:46:21.474Z,101137.59
2023-04-18T05:48:48.434Z,101148.69
2023-04-18T05:51:15.419Z,101143.03
2023-04-18T05:53:42.320Z,101148.13
2023-04-18T05:56:09.391Z,101146.66
2023-04-18T05:58:36.331Z,101149.91
2023-04-18T06:01:03.404Z,101149.28
2023-04-18T06:03:31.162Z,101154.09
2023-04-18T06:05:58.741Z,101145.53
2023-04-18T06:08:25.957Z,101147.97
2023-04-18T06:10:53.215Z,101149.28
2023-04-18T06:13:20.179Z,101153.56
2023-04-18T06:15:47.145Z,101157.69
2023-04-18T06:18:14.104Z,101158.13
2023-04-18T06:20:42.214Z,101164.09
2023-04-18T06:23:09.632Z,101165.53
2023-04-18T06:25:36.733Z,101162.19
2023-04-18T06:28:03.760Z,101166.75
2023-04-18T06:30:30.825Z,101162.97
2023-04-18T06:32:57.807Z,101150.13
2023-04-18T06:35:26.463Z,101162.06
2023-04-18T06:37:53.843Z,101161.53
2023-04-18T06:40:20.778Z,101162.41
2023-04-18T06:42:47.648Z,101163.53
2023-04-18T06:45:14.708Z,101165.53
2023-04-18T06:47:41.685Z,101164.53
2023-04-18T06:50:09.397Z,101172.03
2023-04-18T06:52:40.682Z,101175.16
2023-04-18T06:55:09.399Z,101181.13
2023-04-18T06:57:36.498Z,101178.63
2023-04-18T07:00:05.413Z,101171.00
2023-04-18T07:02:32.683Z,101178.78
2023-04-18T07:04:59.706Z,101175.78
2023-04-18T07:07:26.662Z,101179.09
2023-04-18T07:09:54.118Z,101179.22
2023-04-18T07:12:21.454Z,101176.97
2023-04-18T07:14:48.406Z,101173.56
2023-04-18T07:17:15.726Z,101179.81
2023-04-18T07:19:42.776Z,101180.78
2023-04-18T07:22:10.108Z,101178.06
2023-04-18T07:24:39.137Z,101175.78
2023-04-18T07:27:07.421Z,101172.81
2023-04-18T07:29:34.387Z,101175.13
2023-04-18T07:32:01.304Z,101177.56
2023-04-18T07:34:30.041Z,101174.72
2023-04-18T07:37:00.203Z,101168.66
2023-04-18T07:39:27.342Z,101172.03
2023-04-18T07:41:54.369Z,101170.31
2023-04-18T07:44:22.019Z,101175.44
2023-04-18T07:46:49.308Z,101173.75
2023-04-18T07:49:16.784Z,101178.53
2023-04-18T07:51:43.855Z,101183.53
2023-04-18T07:54:11.290Z,101183.31
2023-04-18T07:56:38.321Z,101179.47
2023-04-18T07:59:05.453Z,101174.72
2023-04-18T08:01:32.504Z,101175.81
2023-04-18T08:04:02.164Z,101175.97
2023-04-18T08:06:29.885Z,101184.38
2023-04-18T08:08:59.094Z,101185.16
2023-04-18T08:11:26.712Z,101180.56
2023-04-18T08:13:53.582Z,101181.63
2023-04-18T08:16:20.858Z,101180.16
2023-04-18T08:18:47.784Z,101185.59
2023-04-18T08:21:15.083Z,101182.59
2023-04-18T08:23:42.014Z,101184.19
2023-04-18T08:26:08.941Z,101183.22
2023-04-18T08:28:35.801Z,101189.53
2023-04-18T08:31:02.847Z,101181.19
2023-04-18T08:33:30.602Z,101187.59
2023-04-18T08:35:57.573Z,101182.25
2023-04-18T08:38:24.526Z,101183.50
2023-04-18T08:40:51.504Z,101186.44
2023-04-18T08:43:18.396Z,101186.44
2023-04-18T08:45:45.935Z,101187.53
2023-04-18T08:48:16.893Z,101187.91
2023-04-18T08:50:44.911Z,101187.66
2023-04-18T08:53:12.336Z,101188.94
2023-04-18T08:55:40.644Z,101199.03
2023-04-18T08:58:08.057Z,101185.47
2023-04-18T09:00:35.364Z,101202.44
2023-04-18T09:03:04.069Z,101200.06
2023-04-18T09:05:31.218Z,101198.38
2023-04-18T09:07:58.219Z,101206.13
2023-04-18T09:10:33.434Z,101210.31
2023-04-18T09:13:03.755Z,101213.56
2023-04-18T09:15:31.336Z,101210.88
2023-04-18T09:18:02.437Z,101203.81
2023-04-18T09:20:38.042Z,101200.59
2023-04-18T09:23:10.997Z,101206.28
2023-04-18T09:25:46.861Z,101204.44
2023-04-18T09:28:31.360Z,101210.38
2023-04-18T09:31:09.507Z,101211.03
2023-04-18T09:33:37.617Z,101211.75
2023-04-18T09:36:27.322Z,101219.13
2023-04-18T09:38:56.874Z,101217.47
2023-04-18T09:41:24.475Z,101218.91
2023-04-18T09:44:10.842Z,101212.13
2023-04-18T09:46:39.466Z,101210.88
2023-04-18T09:49:07.901Z,101213.91
2023-04-18T09:51:36.781Z,101219.53
2023-04-18T09:54:05.702Z,101223.78
2023-04-18T09:56:34.642Z,101218.94
2023-04-18T09:59:11.778Z,101218.09
2023-04-18T10:01:42.138Z,101215.19
2023-04-18T10:04:10.432Z,101228.19
2023-04-18T10:06:42.174Z,101211.59
2023-04-18T10:09:10.331Z,101209.22
2023-04-18T10:11:37.570Z,101217.66
2023-04-18T10:14:10.022Z,101204.97
2023-04-18T10:16:38.844Z,101209.03
2023-04-18T10:19:21.251Z,101218.69
2023-04-18T10:21:56.189Z,101208.75
2023-04-18T10:24:55.187Z,101213.81
2023-04-18T10:27:49.892Z,101216.06
2023-04-18T10:30:17.485Z,101205.81
2023-04-18T10:32:46.948Z,101206.72
2023-04-18T10:35:14.037Z,101199.69
2023-04-18T10:38:17.499Z,101196.81
2023-04-18T10:40:45.846Z,101188.94
2023-04-18T10:43:13.450Z,101188.56
2023-04-18T10:45:40.483Z,101189.44
2023-04-18T10:48:25.034Z,101187.50
2023-04-18T10:51:18.401Z,101188.97
2023-04-18T10:53:53.150Z,101190.47
2023-04-18T10:56:20.743Z,101195.50
2023-04-18T10:58:52.897Z,101190.44
2023-04-18T11:01:32.362Z,101190.19
2023-04-18T11:04:00.742Z,101188.75
2023-04-18T11:06:28.621Z,101200.06
2023-04-18T11:09:12.273Z,101186.63
2023-04-18T11:11:39.472Z,101186.13
2023-04-18T11:14:06.468Z,101196.47
2023-04-18T11:16:34.656Z,101188.31
2023-04-18T11:19:17.372Z,101171.88
2023-04-18T11:21:44.639Z,101178.22
2023-04-18T11:24:11.718Z,101176.28
2023-04-18T11:26:39.033Z,101184.16
2023-04-18T11:29:06.591Z,101187.31
2023-04-18T11:31:33.531Z,101180.84
2023-04-18T11:34:02.022Z,101190.88
2023-04-18T11:36:29.091Z,101171.56
2023-04-18T11:38:56.710Z,101180.28
2023-04-18T11:41:24.094Z,101172.78
2023-04-18T11:43:51.691Z,101179.09
2023-04-18T11:46:18.823Z,101174.25
2023-04-18T11:48:46.723Z,101175.13
2023-04-18T11:51:38.542Z,101170.00
2023-04-18T11:54:05.889Z,101172.09
2023-04-18T11:56:34.600Z,101178.44
2023-04-18T11:59:10.044Z,101163.53
2023-04-18T12:01:36.966Z,101166.19
2023-04-18T12:04:08.480Z,101161.38
2023-04-18T12:06:48.074Z,101171.66
2023-04-18T12:09:16.460Z,101155.69
2023-04-18T12:11:43.690Z,101164.25
2023-04-18T12:14:23.005Z,101164.31
2023-04-18T12:16:50.880Z,101168.47
2023-04-18T12:19:20.678Z,101174.81
2023-04-18T12:22:02.318Z,101169.88
2023-04-18T12:24:29.548Z,101162.94
2023-04-18T12:26:58.242Z,101166.16
2023-04-18T12:29:26.400Z,101180.53
2023-04-18T12:31:53.543Z,101172.63
2023-04-18T12:34:21.046Z,101179.91
2023-04-18T12:36:48.036Z,101171.75
2023-04-18T12:39:15.365Z,101176.50
2023-04-18T12:41:42.384Z,101178.16
2023-04-18T12:44:09.454Z,101188.47
2023-04-18T12:46:36.880Z,101176.97
2023-04-18T12:49:04.051Z,101182.41
2023-04-18T12:51:31.613Z,101174.97
2023-04-18T12:53:58.635Z,101186.09
2023-04-18T12:56:25.781Z,101184.03
2023-04-18T12:58:52.917Z,101184.63
2023-04-18T13:01:20.168Z,101184.06
2023-04-18T13:03:56.371Z,101176.97
2023-04-18T13:06:27.253Z,101178.38
2023-04-18T13:08:54.137Z,101188.00
2023-04-18T13:11:22.596Z,101172.44
2023-04-18T13:13:49.565Z,101186.34
2023-04-18T13:16:16.750Z,101187.91
2023-04-18T13:18:44.443Z,101190.84
2023-04-18T13:21:11.494Z,101174.69
2023-04-18T13:23:38.545Z,101178.06
2023-04-18T13:26:05.922Z,101182.06
2023-04-18T13:28:32.848Z,101179.38
2023-04-18T13:30:59.864Z,101176.66
2023-04-18T13:33:26.761Z,101168.16
2023-04-18T13:35:53.911Z,101171.00
2023-04-18T13:38:20.853Z,101183.75
2023-04-18T13:40:48.570Z,101189.16
2023-04-18T13:43:16.427Z,101185.50
2023-04-18T13:45:49.430Z,101177.22
2023-04-18T13:48:17.497Z,101184.31
2023-04-18T13:50:44.469Z,101166.72
2023-04-18T13:53:11.561Z,101169.03
2023-04-18T13:55:38.486Z,101155.81
2023-04-18T13:58:06.333Z,101169.56
2023-04-18T14:00:34.579Z,101167.28
2023-04-18T14:03:02.589Z,101157.25
2023-04-18T14:05:29.749Z,101162.75
2023-04-18T14:08:02.475Z,101156.53
2023-04-18T14:10:31.347Z,101159.81
2023-04-18T14:12:58.253Z,101150.56
2023-04-18T14:15:25.989Z,101154.69
2023-04-18T14:17:54.969Z,101151.41
2023-04-18T14:20:26.651Z,101150.78
2023-04-18T14:22:53.916Z,101152.63
2023-04-18T14:25:21.165Z,101146.78
2023-04-18T14:27:48.793Z,101145.50
2023-04-18T14:30:16.781Z,101148.09
2023-04-18T14:32:43.826Z,101144.13
2023-04-18T14:35:10.818Z,101144.59
2023-04-18T14:37:42.333Z,101151.88
2023-04-18T14:40:11.632Z,101145.22
2023-04-18T14:42:38.956Z,101150.69
2023-04-18T14:45:08.511Z,101145.59
2023-04-18T14:47:35.951Z,101153.91
2023-04-18T14:50:03.017Z,101147.69
2023-04-18T14:52:33.339Z,101154.22
2023-04-18T14:55:00.350Z,101154.09
2023-04-18T14:57:29.698Z,101150.56
2023-04-18T14:59:56.889Z,101164.75
2023-04-18T15:02:24.159Z,101157.22
2023-04-18T15:04:51.799Z,101155.22
2023-04-18T15:07:18.980Z,101173.81
2023-04-18T15:09:45.997Z,101163.06
2023-04-18T15:12:12.945Z,101156.69
2023-04-18T15:14:40.064Z,101160.94
2023-04-18T15:17:07.064Z,101153.16
2023-04-18T15:19:34.598Z,101155.97
2023-04-18T15:22:02.358Z,101160.81
2023-04-18T15:24:29.376Z,101167.91
2023-04-18T15:26:57.519Z,101162.78
2023-04-18T15:29:24.866Z,101157.94
2023-04-18T15:31:51.834Z,101178.91
2023-04-18T15:34:18.929Z,101153.41
2023-04-18T15:36:49.249Z,101169.00
2023-04-18T15:39:20.288Z,101164.72
2023-04-18T15:41:47.450Z,101156.94
2023-04-18T15:44:16.791Z,101161.91
2023-04-18T15:46:43.666Z,101170.41
2023-04-18T15:49:10.985Z,101158.50
2023-04-18T15:51:38.104Z,101167.88
2023-04-18T15:54:05.180Z,101177.59
2023-04-18T15:56:33.654Z,101167.13
2023-04-18T15:59:04.746Z,101183.13
2023-04-18T16:01:33.194Z,101171.75
2023-04-18T16:04:00.487Z,101173.22
2023-04-18T16:06:27.722Z,101171.50
2023-04-18T16:08:54.641Z,101175.75
2023-04-18T16:11:21.962Z,101176.28
2023-04-18T16:13:49.073Z,101182.78
2023-04-18T16:16:16.096Z,101177.19
2023-04-18T16:18:43.091Z,101179.44
2023-04-18T16:21:15.017Z,101178.25
2023-04-18T16:23:42.245Z,101185.34
2023-04-18T16:26:09.331Z,101181.69
2023-04-18T16:28:39.252Z,101178.88
2023-04-18T16:31:06.594Z,101177.47
2023-04-18T16:33:33.652Z,101186.78
2023-04-18T16:36:04.679Z,101177.75
2023-04-18T16:38:31.910Z,101174.59
2023-04-18T16:41:00.696Z,101170.91
2023-04-18T16:43:29.787Z,101172.59
2023-04-18T16:45:57.752Z,101173.66
2023-04-18T16:48:25.058Z,101171.16
2023-04-18T16:50:52.304Z,101171.22
2023-04-18T16:53:19.220Z,101168.97
2023-04-18T16:55:46.271Z,101171.25
2023-04-18T16:58:13.164Z,101172.66
2023-04-18T17:00:40.139Z,101174.00
2023-04-18T17:03:08.010Z,101171.25
2023-04-18T17:05:35.228Z,101169.78
2023-04-18T17:08:03.769Z,101170.69
2023-04-18T17:10:31.483Z,101178.34
2023-04-18T17:12:59.129Z,101166.72
2023-04-18T17:15:26.581Z,101174.66
2023-04-18T17:17:53.583Z,101180.31
2023-04-18T17:20:20.778Z,101175.53
2023-04-18T17:23:00.333Z,101170.56
2023-04-18T17:25:32.570Z,101176.63
2023-04-18T17:28:02.270Z,101171.38
2023-04-18T17:30:29.763Z,101175.78
2023-04-18T17:32:56.873Z,101172.13
2023-04-18T17:35:23.960Z,101168.88
2023-04-18T17:37:51.320Z,101168.28
2023-04-18T17:40:20.427Z,101170.25
2023-04-18T17:42:47.519Z,101176.59
2023-04-18T17:45:14.417Z,101176.56
2023-04-18T17:47:41.587Z,101184.03
2023-04-18T17:50:08.895Z,101178.19
2023-04-18T17:52:35.816Z,101189.50
2023-04-18T17:55:02.807Z,101188.69
2023-04-18T17:57:30.649Z,101188.13
2023-04-18T17:59:57.702Z,101201.03
2023-04-18T18:02:25.007Z,101199.44
2023-04-18T18:04:52.108Z,101203.69
2023-04-18T18:07:18.973Z,101205.63
2023-04-18T18:09:46.233Z,101213.81
2023-04-18T18:12:13.626Z,101207.44
2023-04-18T18:14:41.565Z,101204.84
2023-04-18T18:17:08.679Z,101201.88
2023-04-18T18:19:38.959Z,101206.41
2023-04-18T18:22:07.224Z,101205.53
2023-04-18T18:24:34.262Z,101203.66
2023-04-18T18:27:01.975Z,101212.31
2023-04-18T18:29:30.620Z,101207.47
2023-04-18T18:31:57.680Z,101207.72
2023-04-18T18:34:24.618Z,101212.25
2023-04-18T18:36:52.011Z,101209.78
2023-04-18T18:39:19.039Z,101210.41
2023-04-18T18:41:46.209Z,101208.28
2023-04-18T18:44:13.207Z,101220.13
2023-04-18T18:46:41.514Z,101224.94
2023-04-18T18:49:10.033Z,101217.38
2023-04-18T18:51:37.310Z,101231.97
2023-04-18T18:54:04.559Z,101225.19
2023-04-18T18:56:31.485Z,101229.13
2023-04-18T18:58:58.615Z,101226.44
2023-04-18T19:01:25.754Z,101226.63
2023-04-18T19:03:52.967Z,101232.59
2023-04-18T19:06:20.009Z,101235.16
2023-04-18T19:08:46.988Z,101233.75
2023-04-18T19:11:16.166Z,101247.34
2023-04-18T19:13:43.081Z,101242.16
2023-04-18T19:16:10.357Z,101242.16
2023-04-18T19:18:37.786Z,101249.25
2023-04-18T19:21:25.720Z,101250.97
2023-04-18T19:23:56.391Z,101271.72
2023-04-18T19:26:23.570Z,101270.44
2023-04-18T19:28:50.722Z,101274.41
2023-04-18T19:31:17.748Z,101272.13
2023-04-18T19:33:44.984Z,101272.13
2023-04-18T19:36:12.059Z,101273.31
2023-04-18T19:38:39.218Z,101280.25
2023-04-18T19:41:06.242Z,101284.66
2023-04-18T19:43:34.473Z,101282.69
2023-04-18T19:46:01.452Z,101283.56
2023-04-18T19:48:28.662Z,101286.38
2023-04-18T19:50:57.007Z,101294.28
2023-04-18T19:53:24.034Z,101297.25
2023-04-18T19:55:51.238Z,101295.25
2023-04-18T19:58:49.078Z,101300.34
2023-04-18T20:01:18.086Z,101303.44
2023-04-18T20:03:47.764Z,101300.91
2023-04-18T20:06:58.322Z,101306.84
2023-04-18T20:09:31.489Z,101306.00
2023-04-18T20:12:01.167Z,101312.13
2023-04-18T20:14:29.411Z,101312.13
2023-04-18T20:16:57.576Z,101313.09
2023-04-18T20:19:29.796Z,101317.03
2023-04-18T20:21:59.508Z,101324.09
2023-04-18T20:24:28.178Z,101319.44
2023-04-18T20:26:55.353Z,101317.41
2023-04-18T20:29:22.353Z,101324.63
2023-04-18T20:31:49.644Z,101325.47
2023-04-18T20:34:16.866Z,101323.63
2023-04-18T20:36:45.129Z,101325.19
2023-04-18T20:39:18.171Z,101329.47
2023-04-18T20:41:49.274Z,101329.47
2023-04-18T20:44:17.160Z,101331.16
2023-04-18T20:46:44.359Z,101330.19
2023-04-18T20:49:12.046Z,101330.66
2023-04-18T20:51:39.190Z,101335.75
2023-04-18T20:54:06.428Z,101340.03
2023-04-18T20:56:33.888Z,101340.63
2023-04-18T20:59:00.999Z,101343.19
2023-04-18T21:01:28.099Z,101346.88
2023-04-18T21:03:57.969Z,101339.38
2023-04-18T21:06:25.132Z,101351.16
2023-04-18T21:08:52.513Z,101347.34
2023-04-18T21:11:19.798Z,101346.47
2023-04-18T21:13:46.887Z,101349.16
2023-04-18T21:16:16.751Z,101340.13
2023-04-18T21:18:44.235Z,101357.22
2023-04-18T21:21:12.187Z,101342.94
2023-04-18T21:23:45.264Z,101354.53
2023-04-18T21:26:13.846Z,101355.41
2023-04-18T21:28:54.343Z,101358.22
2023-04-18T21:31:21.508Z,101348.81
2023-04-18T21:33:52.088Z,101355.06
2023-04-18T21:36:19.247Z,101356.19
2023-04-18T21:38:46.342Z,101356.28
2023-04-18T21:41:19.756Z,101355.59
2023-04-18T21:43:47.271Z,101362.91
2023-04-18T21:46:14.674Z,101357.53
2023-04-18T21:48:44.324Z,101360.50
2023-04-18T21:51:13.136Z,101359.75
2023-04-18T21:53:40.440Z,101360.00
2023-04-18T21:56:08.824Z,101357.31
2023-04-18T21:58:36.074Z,101356.59
2023-04-18T22:01:03.330Z,101357.78
2023-04-18T22:03:32.023Z,101350.00
2023-04-18T22:05:59.258Z,101360.00
2023-04-18T22:08:38.132Z,101357.59
2023-04-18T22:11:05.674Z,101367.72
2023-04-18T22:13:36.058Z,101366.03
2023-04-18T22:16:09.948Z,101356.38
2023-04-18T22:18:40.157Z,101357.34
2023-04-18T22:21:09.633Z,101352.97
2023-04-18T22:23:39.334Z,101358.56
2023-04-18T22:26:09.064Z,101356.75
2023-04-18T22:28:38.990Z,101358.56
2023-04-18T22:31:09.498Z,101354.19
2023-04-18T22:33:39.247Z,101359.69
2023-04-18T22:36:06.885Z,101352.03
2023-04-18T22:38:33.978Z,101359.34
2023-04-18T22:41:01.188Z,101364.09
2023-04-18T22:43:30.462Z,101365.19
2023-04-18T22:45:57.503Z,101362.66
2023-04-18T22:48:24.767Z,101357.50
2023-04-18T22:50:51.805Z,101365.94
2023-04-18T22:53:24.154Z,101360.56
2023-04-18T22:55:51.771Z,101357.19
2023-04-18T22:58:18.967Z,101361.69
2023-04-18T23:00:46.371Z,101362.53
2023-04-18T23:03:13.675Z,101358.41
2023-04-18T23:05:41.477Z,101359.59
2023-04-18T23:08:08.653Z,101358.41
2023-04-18T23:10:36.333Z,101363.66
2023-04-18T23:13:03.213Z,101355.94
2023-04-18T23:15:30.831Z,101356.09
2023-04-18T23:17:57.825Z,101359.84
2023-04-18T23:20:24.759Z,101361.69
2023-04-18T23:22:53.175Z,101365.59
2023-04-18T23:25:20.154Z,101355.59
2023-04-18T23:27:47.768Z,101359.63
2023-04-18T23:30:15.028Z,101356.19
2023-04-18T23:32:42.602Z,101358.88
2023-04-18T23:35:13.705Z,101363.75
2023-04-18T23:37:42.289Z,101359.50
2023-04-18T23:40:09.609Z,101358.91
2023-04-18T23:42:40.235Z,101358.91
2023-04-18T23:45:11.077Z,101359.25
2023-04-18T23:47:38.100Z,101353.16
2023-04-18T23:50:05.785Z,101348.88
2023-04-18T23:52:32.819Z,101349.09
2023-04-18T23:55:03.095Z,101349.09
2023-04-18T23:57:30.507Z,101347.66
2023-04-18T23:59:57.547Z,101346.41
